createdAt,value
2017-09-18T00:01:05.199Z,4.50
2017-09-18T00:03:31.501Z,3.70
2017-09-18T00:05:57.794Z,4.30
2017-09-18T00:08:24.089Z,3.60
2017-09-18T00:10:50.368Z,4.17
2017-09-18T00:13:17.415Z,4.20
2017-09-18T00:15:43.709Z,4.13
2017-09-18T00:18:10.002Z,4.40
2017-09-18T00:20:37.031Z,4.93
2017-09-18T00:23:04.106Z,4.90
2017-09-18T00:25:30.405Z,5.20
2017-09-18T00:27:56.716Z,5.10
2017-09-18T00:30:23.028Z,5.23
2017-09-18T00:32:49.348Z,5.27
2017-09-18T00:35:15.654Z,5.90
2017-09-18T00:37:41.963Z,6.00
2017-09-18T00:40:09.033Z,4.87
2017-09-18T00:42:35.339Z,6.23
2017-09-18T00:45:01.674Z,5.77
2017-09-18T00:47:27.990Z,4.80
2017-09-18T00:49:54.322Z,4.87
2017-09-18T00:52:20.647Z,4.10
2017-09-18T00:54:47.737Z,4.93
2017-09-18T00:57:14.058Z,4.07
2017-09-18T00:59:40.411Z,5.10
2017-09-18T01:02:06.703Z,4.93
2017-09-18T01:04:33.781Z,4.53
2017-09-18T01:07:00.109Z,4.93
2017-09-18T01:09:26.428Z,4.83
2017-09-18T01:11:53.116Z,5.80
2017-09-18T01:14:19.485Z,5.87
2017-09-18T01:16:45.796Z,7.83
2017-09-18T01:19:12.130Z,6.03
2017-09-18T01:21:39.197Z,6.17
2017-09-18T01:24:05.493Z,7.13
2017-09-18T01:26:32.767Z,8.87
2017-09-18T01:28:59.790Z,8.20
2017-09-18T01:31:26.113Z,8.60
2017-09-18T01:33:53.867Z,7.00
2017-09-18T01:36:20.175Z,6.97
2017-09-18T01:38:46.453Z,6.40
2017-09-18T01:41:12.742Z,6.80
2017-09-18T01:43:39.020Z,7.63
2017-09-18T01:46:05.319Z,7.10
2017-09-18T01:48:33.107Z,7.30
2017-09-18T01:50:59.410Z,6.10
2017-09-18T01:53:25.681Z,6.40
2017-09-18T01:55:52.713Z,7.60
2017-09-18T01:58:19.075Z,6.40
2017-09-18T02:00:45.363Z,6.40
2017-09-18T02:03:11.698Z,5.70
2017-09-18T02:05:38.775Z,5.73
2017-09-18T02:08:05.095Z,5.60
2017-09-18T02:10:31.406Z,5.63
2017-09-18T02:12:57.704Z,5.17
2017-09-18T02:15:23.993Z,5.80
2017-09-18T02:17:51.015Z,5.93
2017-09-18T02:20:20.826Z,5.67
2017-09-18T02:22:47.130Z,5.30
2017-09-18T02:25:13.448Z,6.13
2017-09-18T02:27:39.733Z,5.60
2017-09-18T02:30:06.753Z,6.20
2017-09-18T02:32:33.816Z,5.60
2017-09-18T02:35:00.086Z,6.03
2017-09-18T02:37:26.379Z,6.10
2017-09-18T02:39:52.675Z,6.33
2017-09-18T02:42:18.977Z,6.77
2017-09-18T02:44:45.333Z,6.47
2017-09-18T02:47:11.618Z,6.70
2017-09-18T02:49:37.908Z,6.20
2017-09-18T02:52:04.956Z,6.67
2017-09-18T02:54:31.262Z,7.93
2017-09-18T02:56:58.394Z,6.40
2017-09-18T02:59:24.687Z,7.20
2017-09-18T03:01:51.735Z,7.07
2017-09-18T03:04:18.780Z,7.10
2017-09-18T03:06:45.115Z,7.30
2017-09-18T03:09:12.169Z,7.10
2017-09-18T03:11:39.207Z,9.13
2017-09-18T03:14:06.263Z,8.33
2017-09-18T03:16:32.561Z,8.50
2017-09-18T03:19:00.320Z,8.30
2017-09-18T03:21:26.629Z,8.50
2017-09-18T03:23:52.914Z,10.23
2017-09-18T03:26:19.953Z,10.03
2017-09-18T03:28:46.976Z,9.53
2017-09-18T03:31:13.266Z,9.87
2017-09-18T03:33:39.555Z,10.47
2017-09-18T03:36:06.605Z,10.57
2017-09-18T03:38:33.651Z,9.27
2017-09-18T03:40:59.946Z,9.87
2017-09-18T03:43:26.261Z,8.93
2017-09-18T03:45:52.558Z,10.00
2017-09-18T03:48:19.813Z,9.80
2017-09-18T03:50:46.149Z,9.60
2017-09-18T03:53:12.426Z,9.00
2017-09-18T03:55:38.731Z,8.90
2017-09-18T03:58:05.023Z,9.00
2017-09-18T04:00:31.335Z,8.60
2017-09-18T04:02:58.391Z,9.20
2017-09-18T04:05:25.641Z,9.23
2017-09-18T04:07:52.661Z,9.03
2017-09-18T04:10:19.183Z,10.67
2017-09-18T04:12:45.479Z,9.70
2017-09-18T04:15:11.779Z,9.27
2017-09-18T04:17:38.823Z,8.83
2017-09-18T04:20:05.847Z,9.97
2017-09-18T04:22:32.141Z,9.80
2017-09-18T04:24:58.434Z,9.33
2017-09-18T04:27:24.722Z,9.20
2017-09-18T04:29:50.978Z,10.03
2017-09-18T04:32:17.287Z,8.90
2017-09-18T04:34:43.568Z,10.10
2017-09-18T04:37:09.855Z,10.53
2017-09-18T04:39:36.151Z,9.53
2017-09-18T04:42:02.451Z,9.83
2017-09-18T04:44:28.829Z,10.63
2017-09-18T04:46:55.101Z,9.33
2017-09-18T04:49:22.138Z,9.00
2017-09-18T04:51:49.156Z,10.30
2017-09-18T04:54:15.478Z,10.00
2017-09-18T04:56:41.765Z,10.50
2017-09-18T04:59:08.842Z,8.90
2017-09-18T05:01:35.189Z,9.57
2017-09-18T05:04:01.509Z,9.10
2017-09-18T05:06:27.793Z,8.90
2017-09-18T05:08:54.827Z,9.00
2017-09-18T05:11:21.132Z,11.00
2017-09-18T05:13:47.434Z,9.50
2017-09-18T05:16:13.770Z,10.13
2017-09-18T05:18:40.046Z,8.63
2017-09-18T05:21:07.106Z,8.20
2017-09-18T05:23:34.180Z,8.63
2017-09-18T05:26:00.479Z,7.93
2017-09-18T05:28:26.795Z,9.60
2017-09-18T05:30:53.095Z,9.60
2017-09-18T05:33:19.409Z,9.60
2017-09-18T05:35:45.744Z,9.10
2017-09-18T05:38:12.086Z,8.43
2017-09-18T05:40:38.385Z,8.70
2017-09-18T05:43:04.707Z,9.33
2017-09-18T05:45:31.021Z,8.53
2017-09-18T05:47:58.075Z,8.50
2017-09-18T05:50:25.110Z,8.97
2017-09-18T05:52:53.003Z,9.03
2017-09-18T05:55:19.346Z,9.10
2017-09-18T05:57:45.691Z,7.87
2017-09-18T06:00:12.027Z,9.40
2017-09-18T06:02:38.375Z,8.57
2017-09-18T06:05:04.685Z,8.90
2017-09-18T06:07:31.015Z,8.73
2017-09-18T06:09:57.332Z,9.67
2017-09-18T06:12:23.646Z,8.57
2017-09-18T06:14:49.961Z,8.73
2017-09-18T06:17:17.000Z,8.63
2017-09-18T06:19:44.053Z,8.30
2017-09-18T06:22:10.354Z,8.60
2017-09-18T06:24:36.667Z,8.33
2017-09-18T06:27:02.950Z,8.17
2017-09-18T06:29:29.413Z,8.60
2017-09-18T06:31:55.733Z,8.70
2017-09-18T06:34:22.189Z,8.60
2017-09-18T06:36:48.543Z,9.30
2017-09-18T06:39:14.855Z,8.97
2017-09-18T06:41:41.466Z,7.67
2017-09-18T06:44:08.706Z,8.83
2017-09-18T06:46:35.024Z,8.50
2017-09-18T06:49:01.376Z,7.97
2017-09-18T06:51:27.681Z,9.70
2017-09-18T06:53:53.986Z,10.00
2017-09-18T06:56:21.052Z,9.50
2017-09-18T06:58:47.375Z,9.10
2017-09-18T07:01:14.439Z,9.40
2017-09-18T07:03:40.756Z,9.93
2017-09-18T07:06:07.806Z,9.47
2017-09-18T07:08:34.845Z,9.23
2017-09-18T07:11:01.916Z,10.40
2017-09-18T07:13:28.231Z,10.97
2017-09-18T07:15:55.331Z,10.83
2017-09-18T07:18:21.629Z,9.70
2017-09-18T07:20:47.947Z,9.40
2017-09-18T07:23:14.276Z,9.80
2017-09-18T07:25:40.620Z,8.43
2017-09-18T07:28:06.948Z,10.33
2017-09-18T07:30:33.279Z,8.23
2017-09-18T07:32:59.608Z,8.53
2017-09-18T07:35:25.900Z,8.90
2017-09-18T07:37:52.195Z,11.10
2017-09-18T07:40:18.489Z,8.80
2017-09-18T07:42:45.530Z,10.00
2017-09-18T07:45:12.581Z,11.13
2017-09-18T07:47:39.599Z,10.77
2017-09-18T07:50:06.662Z,10.67
2017-09-18T07:52:34.501Z,10.03
2017-09-18T07:55:00.797Z,9.30
2017-09-18T07:57:27.100Z,9.20
2017-09-18T07:59:54.155Z,8.07
2017-09-18T08:02:20.498Z,7.60
2017-09-18T08:04:46.849Z,7.00
2017-09-18T08:07:13.152Z,7.27
2017-09-18T08:09:39.446Z,7.53
2017-09-18T08:12:05.721Z,7.80
2017-09-18T08:14:32.062Z,5.97
2017-09-18T08:16:58.346Z,6.07
2017-09-18T08:19:25.395Z,6.83
2017-09-18T08:21:52.462Z,6.30
2017-09-18T08:24:18.770Z,5.77
2017-09-18T08:26:45.847Z,5.33
2017-09-18T08:29:12.190Z,5.00
2017-09-18T08:31:38.519Z,5.80
2017-09-18T08:34:04.821Z,4.70
2017-09-18T08:36:31.168Z,4.57
2017-09-18T08:38:57.465Z,5.50
2017-09-18T08:41:25.549Z,5.20
2017-09-18T08:43:52.582Z,5.30
2017-09-18T08:46:19.626Z,5.13
2017-09-18T08:48:46.666Z,5.90
2017-09-18T08:51:13.011Z,4.90
2017-09-18T08:53:40.067Z,4.70
2017-09-18T08:56:07.163Z,5.40
2017-09-18T08:58:33.492Z,5.57
2017-09-18T09:00:59.793Z,5.23
2017-09-18T09:03:26.126Z,5.73
2017-09-18T09:05:52.443Z,5.60
2017-09-18T09:08:18.810Z,6.00
2017-09-18T09:10:45.160Z,5.00
2017-09-18T09:13:11.510Z,5.70
2017-09-18T09:15:38.553Z,5.90
2017-09-18T09:18:05.624Z,5.57
2017-09-18T09:20:32.644Z,4.83
2017-09-18T09:22:58.946Z,5.33
2017-09-18T09:25:25.247Z,5.10
2017-09-18T09:27:51.551Z,5.07
2017-09-18T09:30:18.627Z,4.10
2017-09-18T09:32:44.957Z,3.60
2017-09-18T09:35:11.258Z,4.27
2017-09-18T09:37:39.196Z,3.70
2017-09-18T09:40:05.534Z,5.10
2017-09-18T09:42:32.604Z,4.97
2017-09-18T09:44:59.664Z,4.73
2017-09-18T09:47:25.997Z,4.40
2017-09-18T09:49:52.404Z,3.60
2017-09-18T09:52:18.771Z,5.63
2017-09-18T09:54:45.107Z,4.00
2017-09-18T09:57:11.453Z,4.83
2017-09-18T09:59:37.774Z,5.50
2017-09-18T10:02:04.093Z,5.30
2017-09-18T10:04:30.417Z,3.87
2017-09-18T10:06:56.770Z,3.70
2017-09-18T10:09:23.139Z,4.87
2017-09-18T10:11:50.804Z,4.80
2017-09-18T10:14:25.690Z,4.70
2017-09-18T10:16:52.015Z,4.50
2017-09-18T10:19:18.314Z,3.33
2017-09-18T10:21:45.391Z,4.00
2017-09-18T10:24:11.712Z,3.40
2017-09-18T10:26:38.034Z,3.70
2017-09-18T10:29:04.338Z,3.13
2017-09-18T10:31:31.453Z,3.07
2017-09-18T10:33:57.762Z,3.20
2017-09-18T10:36:24.108Z,4.07
2017-09-18T10:38:50.439Z,3.60
2017-09-18T10:41:16.749Z,2.10
2017-09-18T10:43:43.078Z,2.30
2017-09-18T10:46:09.361Z,3.00
2017-09-18T10:48:36.435Z,2.37
2017-09-18T10:51:02.778Z,2.67
2017-09-18T10:53:29.092Z,2.13
2017-09-18T10:55:56.151Z,2.00
2017-09-18T10:58:22.445Z,1.57
2017-09-18T11:00:49.489Z,2.20
2017-09-18T11:03:15.819Z,1.97
2017-09-18T11:05:42.906Z,1.70
2017-09-18T11:08:09.224Z,1.80
2017-09-18T11:10:36.282Z,1.90
2017-09-18T11:13:02.606Z,1.93
2017-09-18T11:15:28.940Z,1.87
2017-09-18T11:17:55.265Z,1.70
2017-09-18T11:20:21.571Z,1.60
2017-09-18T11:22:48.625Z,1.47
2017-09-18T11:25:14.958Z,1.60
2017-09-18T11:27:41.347Z,1.43
2017-09-18T11:30:09.146Z,1.97
2017-09-18T11:32:35.455Z,1.67
2017-09-18T11:35:01.753Z,1.23
2017-09-18T11:37:28.089Z,1.50
2017-09-18T11:39:54.393Z,3.40
2017-09-18T11:42:20.707Z,1.57
2017-09-18T11:44:47.006Z,1.73
2017-09-18T11:47:14.098Z,1.60
2017-09-18T11:49:40.403Z,1.30
2017-09-18T11:52:07.433Z,1.60
2017-09-18T11:54:33.738Z,1.80
2017-09-18T11:57:00.058Z,2.00
2017-09-18T11:59:26.390Z,2.07
2017-09-18T12:01:52.676Z,1.57
2017-09-18T12:04:19.748Z,3.17
2017-09-18T12:06:46.038Z,1.57
2017-09-18T12:09:12.351Z,2.53
2017-09-18T12:11:38.671Z,1.70
2017-09-18T12:14:04.985Z,1.60
2017-09-18T12:16:31.293Z,1.80
2017-09-18T12:18:57.608Z,1.50
2017-09-18T12:21:24.672Z,1.40
2017-09-18T12:23:50.969Z,1.43
2017-09-18T12:26:18.533Z,1.40
2017-09-18T12:28:45.703Z,1.53
2017-09-18T12:31:12.763Z,1.70
2017-09-18T12:33:39.081Z,1.60
2017-09-18T12:36:05.429Z,2.47
2017-09-18T12:38:31.859Z,1.60
2017-09-18T12:40:58.174Z,2.50
2017-09-18T12:43:24.507Z,2.03
2017-09-18T12:45:50.850Z,1.37
2017-09-18T12:48:17.172Z,1.40
2017-09-18T12:50:43.677Z,1.20
2017-09-18T12:53:10.137Z,1.30
2017-09-18T12:55:36.445Z,1.27
2017-09-18T12:58:03.886Z,1.50
2017-09-18T13:00:30.285Z,1.47
2017-09-18T13:02:56.628Z,1.40
2017-09-18T13:05:22.954Z,1.50
2017-09-18T13:07:49.608Z,1.40
2017-09-18T13:10:15.921Z,1.47
2017-09-18T13:12:42.234Z,1.70
2017-09-18T13:15:08.549Z,1.73
2017-09-18T13:17:34.918Z,1.20
2017-09-18T13:20:02.731Z,1.40
2017-09-18T13:22:29.043Z,1.20
2017-09-18T13:24:56.870Z,1.20
2017-09-18T13:27:23.959Z,1.40
2017-09-18T13:29:51.067Z,1.63
2017-09-18T13:32:17.398Z,1.50
2017-09-18T13:34:43.764Z,1.70
2017-09-18T13:37:10.925Z,1.80
2017-09-18T13:39:37.986Z,1.67
2017-09-18T13:42:04.310Z,1.33
2017-09-18T13:44:30.630Z,1.67
2017-09-18T13:46:57.677Z,1.20
2017-09-18T13:49:24.758Z,1.80
2017-09-18T13:51:51.042Z,2.00
2017-09-18T13:54:18.840Z,1.60
2017-09-18T13:56:45.155Z,1.70
2017-09-18T13:59:11.451Z,1.67
2017-09-18T14:01:37.772Z,1.50
2017-09-18T14:04:04.117Z,1.57
2017-09-18T14:06:31.198Z,1.63
2017-09-18T14:08:58.254Z,1.80
2017-09-18T14:11:25.275Z,1.60
2017-09-18T14:13:52.334Z,1.93
2017-09-18T14:16:18.677Z,1.80
2017-09-18T14:18:45.717Z,1.80
2017-09-18T14:21:12.038Z,1.87
2017-09-18T14:23:38.393Z,1.30
2017-09-18T14:26:04.715Z,1.30
2017-09-18T14:28:31.029Z,1.27
2017-09-18T14:30:58.077Z,1.37
2017-09-18T14:33:25.150Z,0.83
2017-09-18T14:35:51.487Z,1.10
2017-09-18T14:38:17.844Z,1.60
2017-09-18T14:40:44.173Z,1.13
2017-09-18T14:43:10.527Z,1.10
2017-09-18T14:45:36.874Z,0.70
2017-09-18T14:48:03.233Z,0.87
2017-09-18T14:50:29.588Z,0.90
2017-09-18T14:52:55.918Z,0.70
2017-09-18T14:55:22.252Z,0.80
2017-09-18T14:57:48.597Z,0.90
2017-09-18T15:00:14.939Z,0.63
2017-09-18T15:02:41.242Z,0.80
2017-09-18T15:05:07.516Z,1.63
2017-09-18T15:07:34.626Z,0.70
2017-09-18T15:10:00.950Z,0.90
2017-09-18T15:12:27.248Z,1.13
2017-09-18T15:14:53.557Z,0.90
2017-09-18T15:17:20.605Z,1.20
2017-09-18T15:19:47.657Z,0.90
2017-09-18T15:22:13.954Z,1.13
2017-09-18T15:24:40.260Z,1.03
2017-09-18T15:27:06.535Z,0.90
2017-09-18T15:29:33.595Z,1.60
2017-09-18T15:32:00.626Z,1.10
2017-09-18T15:34:27.696Z,1.13
2017-09-18T15:36:54.010Z,1.10
2017-09-18T15:39:21.058Z,1.50
2017-09-18T15:41:48.103Z,1.73
2017-09-18T15:44:15.154Z,1.70
2017-09-18T15:46:42.211Z,1.40
2017-09-18T15:49:08.522Z,1.50
2017-09-18T15:51:34.845Z,1.47
2017-09-18T15:54:01.912Z,1.30
2017-09-18T15:56:28.252Z,1.40
2017-09-18T15:58:54.607Z,1.00
2017-09-18T16:01:20.952Z,1.53
2017-09-18T16:03:47.243Z,1.57
2017-09-18T16:06:14.022Z,1.63
2017-09-18T16:08:40.319Z,2.70
2017-09-18T16:11:06.642Z,2.17
2017-09-18T16:13:32.943Z,1.90
2017-09-18T16:15:59.225Z,1.80
2017-09-18T16:18:25.559Z,2.03
2017-09-18T16:20:51.886Z,3.67
2017-09-18T16:23:18.237Z,1.83
2017-09-18T16:25:44.620Z,1.50
2017-09-18T16:28:12.262Z,1.97
2017-09-18T16:30:39.334Z,2.80
2017-09-18T16:33:06.622Z,1.80
2017-09-18T16:35:32.992Z,1.77
2017-09-18T16:37:59.811Z,1.50
2017-09-18T16:40:26.903Z,2.60
2017-09-18T16:42:53.301Z,1.90
2017-09-18T16:45:19.877Z,1.60
2017-09-18T16:47:46.433Z,2.00
2017-09-18T16:50:12.770Z,1.50
2017-09-18T16:52:39.146Z,3.73
2017-09-18T16:55:06.194Z,1.67
2017-09-18T16:57:32.509Z,2.33
2017-09-18T16:59:58.827Z,1.80
2017-09-18T17:02:25.229Z,1.90
2017-09-18T17:04:51.605Z,1.90
2017-09-18T17:07:18.677Z,1.93
2017-09-18T17:09:45.903Z,4.73
2017-09-18T17:12:12.322Z,2.20
2017-09-18T17:14:41.313Z,2.10
2017-09-18T17:17:07.665Z,2.30
2017-09-18T17:19:34.818Z,1.80
2017-09-18T17:22:01.181Z,1.90
2017-09-18T17:24:27.582Z,2.10
2017-09-18T17:26:54.772Z,2.10
2017-09-18T17:29:21.071Z,2.60
2017-09-18T17:31:47.411Z,2.10
2017-09-18T17:34:14.444Z,3.30
2017-09-18T17:36:41.483Z,2.40
2017-09-18T17:39:07.771Z,2.50
2017-09-18T17:41:34.067Z,4.90
2017-09-18T17:44:01.087Z,2.60
2017-09-18T17:46:27.442Z,3.20
2017-09-18T17:48:54.474Z,3.17
2017-09-18T17:51:20.776Z,2.57
2017-09-18T17:53:47.106Z,3.00
2017-09-18T17:56:13.412Z,2.10
2017-09-18T17:58:39.698Z,2.50
2017-09-18T18:01:06.732Z,3.13
2017-09-18T18:03:33.789Z,2.50
2017-09-18T18:06:00.832Z,2.77
2017-09-18T18:08:27.100Z,2.50
2017-09-18T18:10:53.392Z,2.77
2017-09-18T18:13:20.422Z,3.03
2017-09-18T18:15:46.712Z,2.33
2017-09-18T18:18:13.009Z,3.93
2017-09-18T18:20:39.286Z,2.70
2017-09-18T18:23:05.562Z,3.60
2017-09-18T18:25:32.595Z,3.70
2017-09-18T18:27:58.881Z,5.33
2017-09-18T18:30:25.900Z,4.27
2017-09-18T18:32:52.929Z,4.60
2017-09-18T18:35:19.205Z,4.13
2017-09-18T18:37:45.510Z,3.57
2017-09-18T18:40:12.538Z,3.93
2017-09-18T18:42:39.580Z,4.93
2017-09-18T18:45:05.864Z,4.70
2017-09-18T18:47:32.162Z,4.37
2017-09-18T18:49:58.453Z,3.73
2017-09-18T18:52:26.232Z,3.30
2017-09-18T18:54:53.270Z,4.20
2017-09-18T18:57:19.639Z,5.30
2017-09-18T18:59:52.831Z,4.17
2017-09-18T19:02:19.194Z,5.17
2017-09-18T19:04:45.507Z,5.60
2017-09-18T19:07:11.803Z,5.60
2017-09-18T19:09:38.162Z,5.37
2017-09-18T19:12:04.519Z,5.97
2017-09-18T19:14:30.953Z,4.73
2017-09-18T19:16:57.335Z,5.57
2017-09-18T19:19:23.681Z,4.33
2017-09-18T19:21:50.103Z,4.60
2017-09-18T19:24:17.181Z,5.47
2017-09-18T19:26:43.491Z,5.70
2017-09-18T19:29:10.730Z,5.60
2017-09-18T19:31:37.930Z,5.23
2017-09-18T19:34:04.407Z,5.93
2017-09-18T19:36:31.966Z,6.27
2017-09-18T19:38:58.465Z,6.47
2017-09-18T19:41:24.773Z,5.47
2017-09-18T19:43:51.116Z,5.47
2017-09-18T19:46:17.477Z,5.63
2017-09-18T19:48:44.595Z,5.73
2017-09-18T19:51:11.339Z,6.10
2017-09-18T19:53:37.610Z,6.40
2017-09-18T19:56:04.758Z,7.10
2017-09-18T19:58:31.816Z,6.53
2017-09-18T20:00:58.188Z,6.00
2017-09-18T20:03:24.563Z,5.80
2017-09-18T20:05:51.731Z,6.20
2017-09-18T20:08:18.063Z,6.17
2017-09-18T20:10:44.386Z,5.73
2017-09-18T20:13:10.757Z,7.13
2017-09-18T20:15:37.066Z,7.20
2017-09-18T20:18:03.409Z,7.20
2017-09-18T20:20:29.733Z,6.63
2017-09-18T20:22:56.964Z,7.50
2017-09-18T20:25:23.993Z,7.33
2017-09-18T20:27:51.058Z,8.20
2017-09-18T20:30:17.333Z,7.57
2017-09-18T20:32:43.640Z,7.80
2017-09-18T20:35:09.968Z,7.50
2017-09-18T20:37:36.265Z,7.33
2017-09-18T20:40:02.599Z,7.23
2017-09-18T20:42:28.917Z,7.83
2017-09-18T20:44:55.956Z,8.20
2017-09-18T20:47:22.245Z,7.90
2017-09-18T20:49:48.562Z,8.20
2017-09-18T20:52:14.852Z,9.17
2017-09-18T20:54:41.907Z,9.20
2017-09-18T20:57:08.945Z,8.70
2017-09-18T20:59:35.979Z,7.57
2017-09-18T21:02:03.752Z,8.40
2017-09-18T21:04:31.536Z,7.30
2017-09-18T21:06:58.579Z,8.03
2017-09-18T21:09:25.638Z,8.03
2017-09-18T21:11:51.933Z,7.50
2017-09-18T21:14:18.998Z,8.87
2017-09-18T21:16:46.022Z,8.40
2017-09-18T21:19:12.324Z,8.00
2017-09-18T21:21:38.621Z,7.90
2017-09-18T21:24:04.921Z,9.10
2017-09-18T21:26:31.972Z,8.10
2017-09-18T21:28:59.018Z,7.93
2017-09-18T21:31:26.061Z,8.03
2017-09-18T21:33:53.085Z,8.50
2017-09-18T21:36:19.453Z,8.40
2017-09-18T21:38:45.871Z,8.50
2017-09-18T21:41:12.965Z,8.43
2017-09-18T21:43:40.079Z,8.73
2017-09-18T21:46:07.129Z,9.10
2017-09-18T21:48:33.479Z,9.77
2017-09-18T21:51:00.512Z,9.10
2017-09-18T21:53:27.528Z,7.57
2017-09-18T21:55:53.839Z,8.40
2017-09-18T21:58:20.118Z,9.27
2017-09-18T22:00:47.167Z,9.23
2017-09-18T22:03:13.457Z,9.60
2017-09-18T22:05:39.731Z,9.30
2017-09-18T22:08:06.781Z,9.57
2017-09-18T22:10:33.809Z,8.93
2017-09-18T22:13:00.863Z,8.77
2017-09-18T22:15:27.896Z,9.57
2017-09-18T22:17:54.946Z,9.00
2017-09-18T22:20:21.957Z,9.47
2017-09-18T22:22:48.259Z,9.00
2017-09-18T22:25:14.529Z,9.47
2017-09-18T22:27:40.868Z,8.33
2017-09-18T22:30:07.171Z,8.20
2017-09-18T22:32:33.482Z,8.30
2017-09-18T22:34:59.752Z,8.80
2017-09-18T22:37:26.090Z,8.23
2017-09-18T22:39:52.374Z,8.43
2017-09-18T22:42:18.670Z,8.30
2017-09-18T22:44:44.985Z,8.80
2017-09-18T22:47:11.268Z,8.30
2017-09-18T22:49:37.558Z,8.53
2017-09-18T22:52:04.584Z,9.17
2017-09-18T22:54:31.227Z,8.23
2017-09-18T22:56:58.983Z,9.00
2017-09-18T22:59:26.031Z,7.80
2017-09-18T23:01:52.504Z,8.10
2017-09-18T23:04:18.930Z,8.40
2017-09-18T23:06:45.238Z,7.60
2017-09-18T23:09:13.116Z,8.40
2017-09-18T23:11:40.185Z,8.10
2017-09-18T23:14:06.466Z,7.93
2017-09-18T23:16:32.832Z,7.67
2017-09-18T23:18:59.238Z,7.37
2017-09-18T23:21:25.560Z,7.77
2017-09-18T23:23:52.000Z,7.60
2017-09-18T23:26:18.435Z,7.93
2017-09-18T23:28:44.785Z,7.70
2017-09-18T23:31:11.818Z,11.83
2017-09-18T23:33:38.870Z,7.50
2017-09-18T23:36:05.183Z,8.30
2017-09-18T23:38:31.498Z,8.33
2017-09-18T23:40:57.792Z,7.97
2017-09-18T23:43:24.096Z,7.40
2017-09-18T23:45:51.150Z,8.00
2017-09-18T23:48:17.451Z,7.70
2017-09-18T23:50:43.734Z,7.70
2017-09-18T23:53:10.061Z,7.67
2017-09-18T23:55:36.341Z,7.70
2017-09-18T23:58:02.656Z,7.93
